Time;durP1;ratioP1;P1;durP2;ratioP2;P2;SDS_P1;SDS_P2;PMS_P1;PMS_P2;Temp;Humidity;BMP_temperature;BMP_pressure;BME280_temperature;BME280_humidity;BME280_pressure;Samples;Min_cycle;Max_cycle;Signal;HPM_P1;HPM_P2
2021/06/09 00:00:47;;;;;;;4.85;1.50;;;;;;;19.64;46.15;101706.75;4899844;29;19998;-89
2021/06/09 00:03:31;;;;;;;3.08;1.63;;;;;;;19.94;45.87;101710.91;4898630;29;20048;-89
2021/06/09 00:06:23;;;;;;;3.25;1.38;;;;;;;20.02;46.41;101707.97;4887594;29;20070;-90
2021/06/09 00:09:07;;;;;;;4.53;1.73;;;;;;;19.53;47.45;101720.38;4900094;29;20059;-88
2021/06/09 00:11:53;;;;;;;3.75;1.70;;;;;;;19.48;47.84;101717.81;4907891;29;20058;-83
2021/06/09 00:14:24;;;;;;;2.90;1.50;;;;;;;19.47;48.39;101709.78;4903999;29;20055;-89
2021/06/09 00:17:01;;;;;;;5.05;1.60;;;;;;;19.55;48.03;101711.63;4906690;29;20040;-88
2021/06/09 00:19:48;;;;;;;4.07;1.60;;;;;;;19.94;46.93;101710.91;4926931;29;20047;-87
2021/06/09 00:22:33;;;;;;;3.40;1.67;;;;;;;19.70;47.33;101711.75;4838199;29;20058;-88
2021/06/09 00:25:46;;;;;;;4.85;1.92;;;;;;;19.41;48.77;101717.56;4908723;29;20057;-87
2021/06/09 00:28:22;;;;;;;3.22;1.80;;;;;;;19.57;48.41;101712.94;4904487;29;20066;-90
2021/06/09 00:31:00;;;;;;;2.92;1.60;;;;;;;19.65;49.46;101709.19;4917204;29;20065;-88
2021/06/09 00:33:44;;;;;;;7.53;2.20;;;;;;;19.63;49.96;101705.91;4926151;29;20062;-92
2021/06/09 00:36:33;;;;;;;2.92;1.73;;;;;;;19.46;50.63;101710.94;4936231;29;20140;-87
2021/06/09 00:39:28;;;;;;;3.88;2.05;;;;;;;19.68;50.17;101702.88;4924086;29;20052;-85
2021/06/09 00:42:35;;;;;;;3.47;1.65;;;;;;;19.84;49.77;101712.19;4938019;29;20062;-86
2021/06/09 00:45:47;;;;;;;4.25;1.67;;;;;;;19.51;51.22;101705.94;4935310;29;20063;-84
2021/06/09 00:48:16;;;;;;;3.22;1.73;;;;;;;19.69;50.87;101703.72;4916346;29;20052;-88
2021/06/09 00:51:19;;;;;;;4.53;1.75;;;;;;;19.57;51.28;101706.50;4921613;29;20055;-87
2021/06/09 00:54:06;;;;;;;6.78;2.40;;;;;;;19.59;51.11;101704.19;4919262;29;20522;-88
2021/06/09 00:57:13;;;;;;;6.03;2.05;;;;;;;19.20;52.84;101702.03;4944676;29;20058;-85
2021/06/09 00:59:51;;;;;;;7.38;2.42;;;;;;;19.19;53.11;101706.00;4935431;29;20065;-86
2021/06/09 01:02:44;;;;;;;4.85;2.38;;;;;;;19.46;52.41;101697.78;4937427;29;20055;-88
2021/06/09 01:05:55;;;;;;;5.45;2.40;;;;;;;19.59;52.04;101695.81;4944123;29;20050;-87
2021/06/09 01:08:57;;;;;;;4.55;2.00;;;;;;;19.53;51.95;101698.00;4934160;29;20050;-88
2021/06/09 01:12:04;;;;;;;4.68;2.55;;;;;;;19.00;53.86;101693.41;4923466;29;20066;-89
2021/06/09 01:14:45;;;;;;;3.80;2.08;;;;;;;19.14;53.25;101693.09;4838497;29;20393;-87
2021/06/09 01:17:34;;;;;;;5.10;2.30;;;;;;;19.12;53.25;101694.59;4873301;29;20060;-90
2021/06/09 01:20:18;;;;;;;5.95;2.45;;;;;;;19.39;52.51;101688.34;4907066;29;20055;-90
2021/06/09 01:23:05;;;;;;;4.35;2.28;;;;;;;19.19;52.72;101678.88;4926261;29;20065;-91
2021/06/09 01:25:56;;;;;;;3.20;1.80;;;;;;;19.38;52.29;101684.75;4943333;29;20056;-91
2021/06/09 01:28:42;;;;;;;4.30;1.98;;;;;;;19.69;51.48;101684.97;4900395;29;20060;-88
2021/06/09 01:31:31;;;;;;;7.00;2.20;;;;;;;19.83;51.19;101679.81;4883127;29;20137;-90
2021/06/09 01:34:31;;;;;;;4.30;2.30;;;;;;;19.58;51.54;101683.78;4903128;29;20412;-89
2021/06/09 01:37:20;;;;;;;8.75;2.20;;;;;;;19.51;52.07;101677.97;4918987;29;20115;-89
2021/06/09 01:40:24;;;;;;;4.43;2.03;;;;;;;19.81;51.18;101679.34;4895941;29;20052;-89
2021/06/09 01:43:09;;;;;;;3.45;1.80;;;;;;;19.65;50.98;101678.44;4867010;29;20129;-88
2021/06/09 01:45:39;;;;;;;5.72;1.90;;;;;;;19.28;52.22;101690.78;4878331;29;20056;-90
2021/06/09 01:48:11;;;;;;;3.60;2.10;;;;;;;19.15;51.55;101686.34;4880397;29;20507;-89
2021/06/09 01:50:42;;;;;;;4.90;1.92;;;;;;;18.77;52.92;101678.25;4911068;29;20428;-90
2021/06/09 01:53:24;;;;;;;3.60;1.88;;;;;;;19.06;51.80;101685.63;4894067;29;20054;-88
2021/06/09 01:56:07;;;;;;;3.10;1.90;;;;;;;19.21;50.68;101681.34;4895006;29;20060;-88
2021/06/09 01:58:43;;;;;;;6.40;1.95;;;;;;;19.35;50.43;101687.44;4884712;29;20056;-91
2021/06/09 02:01:33;;;;;;;5.07;1.80;;;;;;;19.34;49.60;101688.56;4881383;29;20044;-87
2021/06/09 02:04:19;;;;;;;2.65;1.50;;;;;;;19.26;48.81;101690.31;4881606;29;20495;-86
2021/06/09 02:07:04;;;;;;;3.92;1.80;;;;;;;19.06;49.79;101683.66;4866974;29;20063;-90
2021/06/09 02:09:39;;;;;;;5.30;1.80;;;;;;;19.47;49.76;101681.84;4897896;29;20043;-90
2021/06/09 02:12:22;;;;;;;10.68;3.42;;;;;;;19.60;52.34;101678.69;4922421;29;20051;-91
2021/06/09 02:15:07;;;;;;;12.65;3.28;;;;;;;19.49;53.00;101676.72;4893938;29;20047;-87
2021/06/09 02:17:37;;;;;;;10.18;2.70;;;;;;;19.64;53.43;101670.41;4925571;29;20048;-89
2021/06/09 02:23:12;;;;;;;11.90;3.20;;;;;;;19.76;54.24;101671.22;4779890;27;20062;-88
2021/06/09 02:25:57;;;;;;;9.18;3.40;;;;;;;19.21;56.89;101678.53;4784234;29;20065;-90
2021/06/09 02:28:41;;;;;;;6.75;3.10;;;;;;;19.21;57.36;101676.56;4764579;29;20063;-88
2021/06/09 02:31:22;;;;;;;8.68;3.08;;;;;;;19.01;58.68;101678.28;4746085;29;20062;-87
2021/06/09 02:33:57;;;;;;;8.73;3.38;;;;;;;18.93;59.20;101678.41;4777356;29;20058;-89
2021/06/09 02:36:51;;;;;;;9.05;3.78;;;;;;;18.98;59.62;101675.38;4793521;29;20059;-88
2021/06/09 02:39:35;;;;;;;6.30;3.67;;;;;;;19.01;60.04;101680.25;4758568;29;20496;-94
2021/06/09 02:42:43;;;;;;;7.53;3.35;;;;;;;18.95;60.17;101679.66;4767095;30;20070;-92
2021/06/09 02:45:31;;;;;;;7.93;3.17;;;;;;;19.08;59.70;101684.13;4780561;29;20063;-89
2021/06/09 02:48:26;;;;;;;5.53;3.40;;;;;;;18.86;60.27;101683.72;4783285;30;20055;-87
2021/06/09 02:51:05;;;;;;;6.38;3.22;;;;;;;19.07;60.00;101676.88;4774365;29;20496;-93
2021/06/09 02:54:07;;;;;;;8.00;3.58;;;;;;;19.17;59.31;101680.38;4805578;29;20054;-89
2021/06/09 02:57:33;;;;;;;5.60;3.30;;;;;;;18.84;60.38;101672.91;4883326;29;20077;-89
2021/06/09 03:00:20;;;;;;;6.32;3.72;;;;;;;18.91;60.31;101680.72;4833745;29;20045;-88
2021/06/09 03:03:24;;;;;;;5.60;3.78;;;;;;;18.71;60.53;101681.56;4834196;29;20057;-86
2021/06/09 03:06:57;;;;;;;6.78;4.00;;;;;;;18.12;63.04;101680.97;4834542;29;20161;-90
2021/06/09 03:10:40;;;;;;;10.55;3.55;;;;;;;18.51;62.20;101688.88;4830002;29;20049;-90
2021/06/09 03:14:02;;;;;;;6.38;3.50;;;;;;;18.38;62.51;101691.91;4801489;29;20047;-90
2021/06/09 03:16:56;;;;;;;7.45;3.30;;;;;;;18.46;62.60;101691.03;4797823;29;20046;-86
2021/06/09 03:19:48;;;;;;;5.15;3.33;;;;;;;18.45;62.22;101684.63;4778737;30;20054;-89
2021/06/09 03:22:59;;;;;;;6.65;3.45;;;;;;;18.43;62.08;101686.97;4789182;30;20051;-92
2021/06/09 03:25:42;;;;;;;6.68;3.78;;;;;;;18.33;62.70;101689.31;4790307;30;20054;-89
2021/06/09 03:28:38;;;;;;;5.32;3.22;;;;;;;18.35;62.47;101692.59;4791720;30;20068;-88
2021/06/09 03:32:31;;;;;;;6.45;3.65;;;;;;;18.16;62.90;101689.47;4914012;23;20065;-93
2021/06/09 03:35:41;;;;;;;7.75;3.30;;;;;;;18.16;62.89;101690.28;4873314;29;20111;-88
2021/06/09 03:38:22;;;;;;;7.13;3.63;;;;;;;17.92;63.38;101699.31;4814294;29;20062;-87
2021/06/09 03:41:07;;;;;;;7.20;3.65;;;;;;;18.14;63.12;101698.19;4834717;29;20042;-88
2021/06/09 03:43:53;;;;;;;5.30;3.28;;;;;;;18.14;62.97;101698.19;4830741;29;20042;-89
2021/06/09 03:46:26;;;;;;;7.85;3.78;;;;;;;18.07;63.13;101695.13;4878916;29;20060;-89
2021/06/09 03:49:10;;;;;;;7.05;3.60;;;;;;;18.24;62.80;101700.56;4817791;29;20047;-89
2021/06/09 03:58:09;;;;;;;7.60;3.55;;;;;;;18.07;63.25;101692.34;4897055;28;20055;-91
2021/06/09 04:01:01;;;;;;;5.95;3.30;;;;;;;18.04;63.06;101681.03;4886552;29;20067;-90
2021/06/09 04:03:47;;;;;;;6.38;3.72;;;;;;;17.93;63.13;101695.41;4869475;29;20059;-89
2021/06/09 04:06:33;;;;;;;5.70;3.75;;;;;;;17.67;63.98;101689.19;4874491;28;20056;-88
2021/06/09 04:09:20;;;;;;;9.23;3.22;;;;;;;17.73;63.61;101693.38;4857431;29;20063;-89
2021/06/09 04:12:03;;;;;;;6.82;3.47;;;;;;;17.96;63.04;101686.34;4854430;29;20117;-87
2021/06/09 04:14:36;;;;;;;5.40;3.30;;;;;;;17.72;63.42;101686.19;4855421;29;20045;-89
2021/06/09 04:17:26;;;;;;;8.88;3.60;;;;;;;17.73;63.30;101687.81;4858257;28;20049;-90
2021/06/09 04:20:22;;;;;;;5.47;3.10;;;;;;;17.86;62.64;101683.16;4843803;28;20043;-88
2021/06/09 04:30:03;;;;;;;7.38;3.53;;;;;;;17.88;61.84;101690.03;4955853;28;20046;-90
2021/06/09 04:32:56;;;;;;;9.45;3.58;;;;;;;17.67;62.32;101694.75;4924843;29;20056;-92
2021/06/09 04:35:46;;;;;;;9.80;3.72;;;;;;;17.79;62.05;101696.81;4908686;29;20496;-92
2021/06/09 04:38:31;;;;;;;9.15;3.92;;;;;;;17.68;62.53;101698.34;4906189;29;20064;-93
2021/06/09 04:41:19;;;;;;;8.82;3.97;;;;;;;17.48;62.95;101693.56;4921559;29;20064;-92
2021/06/09 04:44:16;;;;;;;10.50;3.80;;;;;;;17.78;62.23;101695.97;4926305;29;20056;-90
2021/06/09 04:47:37;;;;;;;8.32;3.72;;;;;;;17.96;61.54;101697.50;4889476;29;20056;-94
2021/06/09 04:50:22;;;;;;;8.93;4.10;;;;;;;18.05;61.23;101702.19;4877706;29;20064;-89
2021/06/09 04:53:12;;;;;;;9.60;3.80;;;;;;;17.96;61.14;101697.50;4883354;29;20065;-89
2021/06/09 04:55:58;;;;;;;10.23;4.35;;;;;;;17.58;62.05;101707.91;4877746;29;20056;-91
2021/06/09 04:59:19;;;;;;;8.75;3.95;;;;;;;17.94;61.53;101707.34;4878393;29;20056;-87
2021/06/09 05:02:13;;;;;;;7.00;3.65;;;;;;;17.98;61.33;101709.13;4908448;29;20085;-91
2021/06/09 05:04:56;;;;;;;8.55;4.15;;;;;;;18.08;60.56;101713.47;4876469;29;20072;-90
2021/06/09 05:07:34;;;;;;;7.57;3.95;;;;;;;17.94;61.04;101705.38;4865530;29;20052;-90
2021/06/09 05:10:12;;;;;;;10.93;4.07;;;;;;;18.00;60.88;101717.16;4881383;29;20048;-91
2021/06/09 05:12:45;;;;;;;8.00;4.50;;;;;;;18.08;60.96;101718.25;4874853;29;20049;-89
2021/06/09 05:15:17;;;;;;;8.48;3.45;;;;;;;18.34;59.92;101711.28;4869849;29;20297;-92
2021/06/09 05:18:01;;;;;;;8.43;3.40;;;;;;;18.12;59.24;101714.44;4869042;29;20061;-90
2021/06/09 05:20:49;;;;;;;6.97;3.33;;;;;;;17.69;60.63;101711.97;4857101;29;20057;-91
2021/06/09 05:23:37;;;;;;;8.10;3.47;;;;;;;17.07;63.02;101719.25;4858615;29;20053;-93
2021/06/09 05:26:28;;;;;;;8.05;3.47;;;;;;;17.15;62.86;101726.78;4858387;29;20053;-89
2021/06/09 05:29:07;;;;;;;7.03;4.20;;;;;;;17.24;62.75;101727.56;4874248;29;20049;-90
2021/06/09 05:31:43;;;;;;;8.80;3.60;;;;;;;17.71;61.27;101712.41;4890318;29;20217;-93
2021/06/09 05:34:21;;;;;;;9.20;4.07;;;;;;;17.98;60.39;101711.91;4878817;29;20048;-92
2021/06/09 05:37:03;;;;;;;8.60;4.15;;;;;;;17.77;61.22;101713.88;4879108;29;20060;-90
2021/06/09 05:39:37;;;;;;;11.65;3.70;;;;;;;18.05;60.63;101714.16;4877456;29;20061;-89
2021/06/09 05:42:14;;;;;;;9.35;3.97;;;;;;;18.18;59.96;101709.47;4889757;29;20052;-93
2021/06/09 05:44:49;;;;;;;10.98;3.50;;;;;;;18.34;59.74;101704.91;4906647;29;20508;-93
2021/06/09 05:47:26;;;;;;;11.35;3.63;;;;;;;18.49;59.36;101709.88;4861814;29;20173;-91
2021/06/09 05:50:17;;;;;;;8.63;4.30;;;;;;;18.41;58.78;101714.38;4906777;29;20056;-92
2021/06/09 05:53:04;;;;;;;;;;;;;;;18.15;59.92;101710.94;4917492;29;20059;-90
2021/06/09 05:55:51;;;;;;;15.25;4.20;;;;;;;18.51;59.49;101708.41;4935699;29;19922;-90
2021/06/09 05:59:21;;;;;;;14.75;3.92;;;;;;;18.58;58.98;101708.66;4928050;29;20048;-90
2021/06/09 06:02:07;;;;;;;13.02;4.88;;;;;;;18.66;58.50;101713.31;4884906;29;20060;-90
2021/06/09 06:04:59;;;;;;;13.68;5.97;;;;;;;18.83;58.22;101712.31;4905452;29;20056;-88
2021/06/09 06:08:13;;;;;;;17.05;5.00;;;;;;;18.94;57.75;101714.34;4896295;29;20158;-92
2021/06/09 06:11:06;;;;;;;23.15;5.40;;;;;;;19.20;57.42;101713.19;4869446;29;20063;-84
2021/06/09 06:13:55;;;;;;;20.83;4.90;;;;;;;19.35;57.13;101716.19;4877190;29;20053;-93
2021/06/09 06:16:56;;;;;;;10.88;5.07;;;;;;;19.37;57.52;101718.63;4866781;29;20061;-92
2021/06/09 06:19:54;;;;;;;12.63;4.72;;;;;;;19.58;56.42;101717.34;4895190;29;20040;-92
2021/06/09 06:22:47;;;;;;;14.60;5.13;;;;;;;19.66;56.13;101710.00;4886872;29;20051;-89
2021/06/09 06:42:37;;;;;;;13.82;8.82;;;;;;;20.23;54.67;101709.81;4860494;29;20056;-87
2021/06/09 06:46:08;;;;;;;12.70;8.13;;;;;;;20.20;54.37;101710.53;4841073;29;20062;-90
2021/06/09 06:49:10;;;;;;;17.13;9.05;;;;;;;20.44;53.57;101699.22;4855435;29;20061;-89
2021/06/09 06:52:16;;;;;;;14.85;9.45;;;;;;;20.51;54.02;101702.25;4834745;29;20054;-91
2021/06/09 06:55:04;;;;;;;13.82;8.10;;;;;;;20.31;53.85;101708.88;4803179;29;20053;-89
2021/06/09 06:58:48;;;;;;;12.30;7.18;;;;;;;20.70;53.23;101703.19;4811331;29;20096;-92
2021/06/09 07:01:39;;;;;;;17.77;8.70;;;;;;;20.48;53.81;101705.75;4853760;29;20062;-89
2021/06/09 07:04:28;;;;;;;14.75;8.95;;;;;;;20.78;53.28;101712.63;4847117;29;20226;-88
2021/06/09 07:07:33;;;;;;;14.75;9.20;;;;;;;20.91;52.67;101711.38;4804968;29;20051;-91
2021/06/09 07:10:54;;;;;;;15.18;9.23;;;;;;;20.67;53.49;101717.09;4827221;29;20055;-84
2021/06/09 07:14:32;;;;;;;12.95;9.88;;;;;;;20.86;53.27;101712.47;4800033;30;20054;-90
2021/06/09 07:17:27;;;;;;;19.02;9.77;;;;;;;21.02;53.40;101712.50;4788863;30;20050;-91
2021/06/09 07:24:10;;;;;;;17.35;9.20;;;;;;;21.03;52.82;101708.53;4896801;29;20037;-87
2021/06/09 07:27:54;;;;;;;15.82;9.40;;;;;;;21.88;50.86;101706.69;4883631;29;20077;-88
2021/06/09 07:37:17;;;;;;;26.17;10.93;;;;;;;22.38;50.54;101704.97;5030604;23;20054;-85
2021/06/09 07:39:58;;;;;;;20.58;11.60;;;;;;;22.45;49.38;101707.94;4798460;29;20063;-86
2021/06/09 07:42:31;;;;;;;19.02;10.75;;;;;;;22.70;49.08;101706.47;4867918;29;20069;-87
2021/06/09 07:45:08;;;;;;;24.70;11.90;;;;;;;22.69;48.29;101702.03;4800048;29;20080;-90
2021/06/09 07:47:42;;;;;;;22.95;11.68;;;;;;;22.72;49.08;101706.88;4813134;29;20073;-85
2021/06/09 07:50:28;;;;;;;18.67;10.95;;;;;;;22.73;48.61;101709.34;4839974;29;20070;-89
2021/06/09 07:53:06;;;;;;;18.27;10.98;;;;;;;22.52;49.45;101708.06;4847025;29;20051;-86
2021/06/09 07:55:34;;;;;;;21.83;9.80;;;;;;;23.22;47.60;101709.47;4768463;29;20050;-89
2021/06/09 07:58:09;;;;;;;17.27;9.85;;;;;;;23.63;46.26;101702.94;4787687;29;20055;-88
2021/06/09 08:00:56;;;;;;;17.27;9.73;;;;;;;23.77;45.38;101703.16;4773635;29;20061;-89
2021/06/09 08:03:39;;;;;;;17.65;10.07;;;;;;;23.79;44.99;101706.41;4849089;29;20069;-86
2021/06/09 08:06:24;;;;;;;19.15;9.80;;;;;;;23.66;46.18;101704.19;4814382;29;20054;-85
2021/06/09 08:09:09;;;;;;;20.33;10.07;;;;;;;24.14;44.92;101712.59;4808083;29;20059;-84
2021/06/09 08:11:46;;;;;;;17.67;9.95;;;;;;;23.49;46.55;101713.97;4795566;29;20059;-86
2021/06/09 08:14:35;;;;;;;18.67;10.15;;;;;;;22.92;47.49;101706.50;4831807;29;20063;-86
2021/06/09 08:17:08;;;;;;;16.95;7.63;;;;;;;23.28;46.58;101711.59;4860254;29;20056;-84
2021/06/09 08:19:51;;;;;;;13.02;8.85;;;;;;;23.72;45.71;101706.31;4818092;29;20062;-85
2021/06/09 08:22:33;;;;;;;16.58;8.43;;;;;;;23.47;46.03;101699.47;4799559;29;20493;-81
2021/06/09 08:25:19;;;;;;;15.55;7.80;;;;;;;23.30;46.28;101708.41;4813486;29;20034;-86
2021/06/09 08:41:57;;;;;;;17.23;10.75;;;;;;;23.05;47.08;101701.50;3847796;23;20059;-88
2021/06/09 08:44:49;;;;;;;13.60;6.25;;;;;;;22.50;47.40;101702.84;4826482;29;20062;-90
2021/06/09 08:47:25;;;;;;;8.95;5.28;;;;;;;23.09;46.50;101696.75;4828898;29;20046;-85
2021/06/09 08:50:15;;;;;;;13.55;6.25;;;;;;;23.71;45.04;101692.63;4799048;29;20050;-88
2021/06/09 08:53:21;;;;;;;13.80;5.05;;;;;;;23.84;44.43;101694.00;4834282;29;20058;-87
2021/06/09 08:56:12;;;;;;;14.38;4.63;;;;;;;23.37;45.32;101700.94;4821730;29;20055;-86
2021/06/09 08:59:12;;;;;;;9.00;4.63;;;;;;;23.10;46.16;101712.47;4827264;29;20057;-87
2021/06/09 09:02:33;;;;;;;13.82;5.25;;;;;;;22.72;45.07;101709.69;4822210;29;20054;-89
2021/06/09 09:05:45;;;;;;;6.47;3.63;;;;;;;22.63;42.96;101703.53;4829840;29;20057;-86
2021/06/09 09:08:30;;;;;;;9.60;5.22;;;;;;;23.48;42.36;101708.72;4839521;29;20045;-89
2021/06/09 09:11:02;;;;;;;5.90;2.90;;;;;;;23.39;40.14;101708.97;4792627;29;20054;-83
2021/06/09 09:13:54;;;;;;;8.45;3.60;;;;;;;23.13;41.00;101706.91;4830820;29;20042;-88
2021/06/09 09:20:51;;;;;;;16.10;4.88;;;;;;;23.10;42.89;101702.00;4844031;29;20059;-89
2021/06/09 09:48:18;;;;;;;6.13;2.80;;;;;;;23.10;40.53;101718.88;3485408;23;20359;-76
2021/06/09 09:50:52;;;;;;;6.47;2.75;;;;;;;23.58;39.94;101714.53;4936209;23;20521;-77
2021/06/09 10:09:46;;;;;;;17.80;8.80;;;;;;;24.24;39.30;101699.84;4888833;23;20049;-84
2021/06/09 10:12:15;;;;;;;9.52;4.22;;;;;;;24.10;39.27;101708.91;4873150;29;20054;-81
2021/06/09 10:14:46;;;;;;;10.85;4.10;;;;;;;24.14;39.42;101706.97;4791704;29;20279;-79
2021/06/09 10:23:44;;;;;;;10.60;4.43;;;;;;;23.97;39.90;101721.53;4915183;29;20396;-77
2021/06/09 10:29:31;;;;;;;14.25;4.00;;;;;;;24.21;39.54;101704.25;2040807;23;20068;-81
2021/06/09 10:49:00;;;;;;;9.98;3.60;;;;;;;24.91;38.89;101697.84;5140634;23;20061;-81
2021/06/09 10:51:32;;;;;;;11.57;3.30;;;;;;;25.05;39.03;101693.19;4845621;29;20066;-83
2021/06/09 10:54:10;;;;;;;13.75;3.72;;;;;;;24.88;38.84;101693.00;4803060;29;20051;-90
2021/06/09 10:56:56;;;;;;;12.82;3.35;;;;;;;24.88;38.94;101695.81;4790095;29;20067;-85
2021/06/09 11:06:50;;;;;;;8.63;3.70;;;;;;;24.30;39.47;101687.06;4920860;29;20055;-78
2021/06/09 11:09:31;;;;;;;12.70;3.50;;;;;;;24.54;38.82;101692.19;4901326;29;20167;-84
2021/06/09 11:12:14;;;;;;;9.88;3.05;;;;;;;24.81;38.77;101679.63;4894433;29;20056;-87
2021/06/09 11:15:00;;;;;;;9.43;3.55;;;;;;;25.25;37.83;101688.91;4903958;29;20056;-83
2021/06/09 11:37:59;;;;;;;9.88;3.00;;;;;;;24.99;37.70;101677.81;3892219;23;20354;-84
2021/06/09 11:40:57;;;;;;;8.93;2.75;;;;;;;25.02;37.66;101682.66;4967844;23;20067;-88
2021/06/09 11:47:26;;;;;;;8.05;3.08;;;;;;;25.62;36.59;101669.09;4839629;29;20040;-81
2021/06/09 11:54:29;;;;;;;8.30;2.78;;;;;;;25.98;35.35;101659.63;2817535;23;20040;31
2021/06/09 12:21:31;;;;;;;7.93;2.97;;;;;;;25.63;35.82;101648.13;4860072;27;20051;-90
2021/06/09 12:24:18;;;;;;;8.55;2.50;;;;;;;25.28;36.26;101659.13;4901854;29;20065;-89
2021/06/09 12:27:02;;;;;;;8.15;2.75;;;;;;;25.11;36.65;101654.94;4875142;29;20049;-90
2021/06/09 12:29:47;;;;;;;6.03;2.20;;;;;;;25.17;36.25;101646.94;4880433;29;20055;-89
2021/06/09 12:32:33;;;;;;;8.00;2.38;;;;;;;25.41;35.94;101649.19;4869396;29;20053;-85
2021/06/09 12:35:11;;;;;;;8.20;2.60;;;;;;;25.52;35.04;101650.88;4871682;29;20053;-85
2021/06/09 12:38:10;;;;;;;4.72;1.92;;;;;;;25.17;35.16;101650.59;4861944;29;20063;-85
2021/06/09 12:40:53;;;;;;;6.80;2.10;;;;;;;25.51;35.07;101652.09;4864747;29;20056;-89
2021/06/09 12:43:40;;;;;;;5.63;2.40;;;;;;;25.78;34.26;101638.56;4884523;29;20065;-87
2021/06/09 12:46:26;;;;;;;10.60;2.80;;;;;;;26.23;33.62;101629.53;4875772;29;20053;-81
2021/06/09 12:49:02;;;;;;;6.57;2.55;;;;;;;25.70;33.34;101636.88;4898896;29;20053;-89
2021/06/09 12:51:38;;;;;;;6.10;2.25;;;;;;;25.99;33.43;101626.56;4900376;29;20041;-86
2021/06/09 12:54:16;;;;;;;6.05;2.38;;;;;;;26.67;33.09;101624.41;4884895;29;20063;-83
2021/06/09 12:57:00;;;;;;;7.68;2.60;;;;;;;26.89;32.88;101621.63;4909167;29;20060;-81
2021/06/09 12:59:48;;;;;;;8.15;2.47;;;;;;;27.09;33.43;101614.38;4863490;29;20035;-87
2021/06/09 13:02:33;;;;;;;8.88;2.95;;;;;;;26.41;33.70;101618.28;4871157;29;20056;-85
2021/06/09 13:05:16;;;;;;;5.50;2.50;;;;;;;26.93;32.98;101617.59;4883871;29;20041;-88
2021/06/09 13:08:42;;;;;;;5.35;2.00;;;;;;;26.80;32.24;101607.88;4872723;29;20057;-84
2021/06/09 13:11:38;;;;;;;6.55;2.17;;;;;;;26.47;32.78;101628.78;4856031;29;20046;-87
2021/06/09 13:14:48;;;;;;;7.40;2.30;;;;;;;26.25;33.43;101610.16;4801956;29;20041;-87
2021/06/09 13:17:31;;;;;;;10.43;2.30;;;;;;;26.16;33.47;101611.72;4789503;30;20055;-87
2021/06/09 13:20:12;;;;;;;5.25;1.85;;;;;;;26.26;33.59;101611.78;4759879;30;20410;-85
2021/06/09 13:22:52;;;;;;;6.63;2.17;;;;;;;26.65;32.62;101606.22;4791454;30;20055;-83
2021/06/09 13:25:21;;;;;;;;;;;;;;;26.72;32.47;101608.28;4805557;30;20055;-87
2021/06/09 13:27:57;;;;;;;4.72;2.10;;;;;;;26.96;31.96;101608.31;4800416;29;19925;-88
2021/06/09 13:30:41;;;;;;;4.65;2.65;;;;;;;26.29;33.48;101610.97;4788866;30;20070;-87
2021/06/09 13:33:19;;;;;;;7.07;2.67;;;;;;;26.51;32.97;101601.38;4800538;29;20516;-89
2021/06/09 13:36:04;;;;;;;3.97;2.35;;;;;;;26.49;33.22;101595.31;4772877;30;20065;-88
2021/06/09 13:38:48;;;;;;;7.28;2.15;;;;;;;26.88;32.82;101588.91;4773094;30;20051;-87
2021/06/09 13:41:30;;;;;;;6.38;2.08;;;;;;;26.37;33.22;101595.69;4794369;29;20646;-89
2021/06/09 13:44:00;;;;;;;3.00;1.75;;;;;;;26.03;33.68;101594.34;4823508;29;20050;-90
2021/06/09 13:46:52;;;;;;;4.53;1.88;;;;;;;26.30;33.12;101592.00;4825687;29;20045;-91
2021/06/09 13:49:41;;;;;;;5.40;2.00;;;;;;;25.95;33.76;101598.31;4827573;29;20058;-88
2021/06/09 13:52:33;;;;;;;4.88;1.98;;;;;;;26.27;33.27;101596.47;4810466;29;20192;-87
2021/06/09 13:55:18;;;;;;;5.72;1.90;;;;;;;26.09;33.11;101594.75;4811863;29;20058;-91
2021/06/09 13:57:54;;;;;;;7.38;2.40;;;;;;;26.44;32.54;101589.22;4835120;29;20495;-90
2021/06/09 14:00:34;;;;;;;7.35;2.10;;;;;;;25.92;33.21;101589.81;4873026;29;20064;-86
2021/06/09 14:03:17;;;;;;;6.75;2.13;;;;;;;26.10;33.22;101583.06;4904805;29;20068;-87
2021/06/09 14:06:00;;;;;;;3.58;1.80;;;;;;;26.85;32.73;101575.59;4899654;29;20052;-88
2021/06/09 14:08:40;;;;;;;7.20;2.28;;;;;;;26.87;31.64;101576.00;4898194;29;20067;-89
2021/06/09 14:11:20;;;;;;;5.82;2.05;;;;;;;26.85;31.58;101573.56;4919756;29;20040;-90
2021/06/09 14:14:32;;;;;;;4.55;2.10;;;;;;;26.92;31.02;101567.13;4916626;29;20067;-88
2021/06/09 14:17:27;;;;;;;3.28;1.90;;;;;;;27.03;31.01;101577.19;4908296;29;20055;-89
2021/06/09 14:20:23;;;;;;;7.38;2.38;;;;;;;26.94;32.30;101565.47;4883805;29;20051;-90
2021/06/09 14:23:07;;;;;;;4.20;2.20;;;;;;;26.28;32.64;101563.34;4847376;29;20060;-90
2021/06/09 14:26:11;;;;;;;5.78;2.10;;;;;;;26.34;33.01;101561.75;4802846;29;20046;-90
2021/06/09 14:29:08;;;;;;;6.47;2.00;;;;;;;26.35;33.13;101552.06;4815362;29;20053;-88
2021/06/09 14:31:36;;;;;;;3.45;1.85;;;;;;;26.35;33.60;101552.06;4809265;29;20065;-88
2021/06/09 14:34:37;;;;;;;7.30;2.30;;;;;;;26.57;33.50;101550.91;4842607;29;20123;-89
2021/06/09 14:37:07;;;;;;;5.95;2.10;;;;;;;26.71;32.11;101552.97;4827892;29;20030;-90
2021/06/09 14:39:39;;;;;;;6.22;2.35;;;;;;;26.85;32.74;101550.16;4881111;29;20042;-91
2021/06/09 14:42:23;;;;;;;5.85;1.80;;;;;;;27.14;31.81;101551.72;4802902;29;20050;-90
2021/06/09 14:44:52;;;;;;;5.00;2.05;;;;;;;27.50;30.88;101544.81;4812521;29;20047;-88
2021/06/09 14:50:23;;;;;;;4.93;1.65;;;;;;;28.17;30.32;101553.88;4808847;29;20061;-88
2021/06/09 14:53:02;;;;;;;7.32;2.97;;;;;;;27.70;31.14;101540.31;4818663;29;20059;-92
2021/06/09 14:55:46;;;;;;;3.95;2.03;;;;;;;27.25;32.61;101539.19;4823328;29;20064;-91
2021/06/09 14:58:18;;;;;;;5.25;2.00;;;;;;;26.85;33.23;101539.63;4842923;29;20050;-87
2021/06/09 15:00:55;;;;;;;6.30;2.30;;;;;;;26.83;32.92;101552.56;4807234;29;20167;-90
2021/06/09 15:03:27;;;;;;;7.88;2.30;;;;;;;26.34;34.15;101554.06;4818899;29;20054;-85
2021/06/09 15:06:09;;;;;;;4.75;1.90;;;;;;;26.57;33.38;101537.56;4828608;29;20061;-87
2021/06/09 15:08:39;;;;;;;4.35;2.10;;;;;;;26.38;33.82;101543.59;4876379;29;20042;-86
2021/06/09 15:11:07;;;;;;;3.78;2.00;;;;;;;26.30;34.11;101530.69;4819748;29;20498;-84
2021/06/09 15:13:45;;;;;;;5.25;2.30;;;;;;;26.33;34.15;101534.72;4787121;29;20061;-89
2021/06/09 15:16:15;;;;;;;7.70;1.80;;;;;;;26.59;33.64;101528.69;4805389;29;20403;-88
2021/06/09 15:18:45;;;;;;;5.05;1.95;;;;;;;26.51;33.61;101538.38;4843579;29;20422;-88
2021/06/09 15:21:17;;;;;;;5.00;1.88;;;;;;;26.68;33.09;101531.97;4802072;29;20058;-82
2021/06/09 15:23:48;;;;;;;7.32;2.22;;;;;;;26.45;33.18;101534.31;4897175;29;20054;-86
2021/06/09 15:26:33;;;;;;;6.13;2.55;;;;;;;26.73;33.14;101536.41;4840267;29;20054;-93
2021/06/09 15:29:20;;;;;;;3.13;1.73;;;;;;;26.99;32.94;101522.66;4811571;29;20050;-93
2021/06/09 15:32:19;;;;;;;4.25;1.85;;;;;;;26.98;32.44;101526.69;4912508;23;20066;-77
2021/06/09 15:34:54;;;;;;;3.15;1.95;;;;;;;26.75;33.36;101517.81;4823158;29;20053;-77
2021/06/09 15:37:43;;;;;;;;;;;;;;;;;;;;;
2021/06/09 15:44:04;;;;;;;7.65;2.10;;;;;;;26.92;32.83;101516.22;892600;23;21131;-76
2021/06/09 15:47:28;;;;;;;4.28;1.70;;;;;;;27.00;32.36;101512.97;4826378;29;20058;-75
2021/06/09 15:50:02;;;;;;;3.88;1.90;;;;;;;27.40;32.07;101504.03;4808196;29;20043;-77
2021/06/09 15:59:36;;;;;;;7.40;2.13;;;;;;;27.99;31.15;101507.03;1917972;23;20058;-79
2021/06/09 16:09:36;;;;;;;4.95;2.05;;;;;;;28.67;30.89;101500.50;5128256;23;20064;-81
2021/06/09 16:12:11;;;;;;;5.22;1.83;;;;;;;28.45;31.34;101507.56;4866481;29;20076;-74
2021/06/09 16:21:04;;;;;;;6.32;2.00;;;;;;;27.32;32.06;101499.59;4875001;23;20454;-76
2021/06/09 16:40:44;;;;;;;5.57;2.05;;;;;;;27.11;32.28;101505.25;5488172;23;20071;-75
2021/06/09 16:46:14;;;;;;;6.07;2.30;;;;;;;27.32;31.50;101501.63;4910107;29;20247;-73
2021/06/09 16:48:43;;;;;;;6.38;2.17;;;;;;;27.19;32.05;101497.56;4885102;29;20059;-76
2021/06/09 16:51:12;;;;;;;6.18;2.00;;;;;;;27.84;31.23;101496.97;4906613;29;20052;-76
2021/06/09 16:53:40;;;;;;;3.17;1.77;;;;;;;27.89;30.95;101493.69;4907547;29;20083;-76